Saga Pearl II — 9HA2950 — position and weather

sailwx.info

Track history (hours):
 
Tides and Currents Weather Stations Pressure Air Temp Water Temp Dewpoint Dewpoint Depression Visibility Wind Speed Wind Dir Waves Ship Positions

Saga Pearl II

Last reported at 2018-Aug-17 20:00 UTC. Time now 2018-Aug-18 00:46 UTC.
Position N 56°42' W 001°06'.

Length 165 m; draft 6.4 m.

Type: Ship. MMSI: 256878000.

Wind from 200 at 26 knots

Barometer 1007.1 mb
Air temperature 14.5 ° C
Visibility: greater than 10.8 NM
Dewpoint 13.1 ° C
Water temperature 14.3 ° C

Date/timePositionNaut miles runAvg speedWind from/ knotsBaromVisibWave heightAir tempDewpointWater temp
2018-Aug-17 20:00N 56°42' W 001°06'36 9.0 200 / 261007.110.8 14.513.114.3
2018-Aug-17 16:00N 57°18' W 001°12'18 9.1 230 / 301007.510.8 13.812.015.9
2018-Aug-17 14:00N 57°36' W 001°18'86 7.3 220 / 301007.7 5.4 14.012.214.7
2018-Aug-17 02:11N 58°55' W 002°20'2 9.0
2018-Aug-17 02:00N 58°54' W 002°18'4164.1 230 / 201003.810.8 12.611.515.1
2018-Aug-17 01:58N 58°57' W 002°20'46 6.7
2018-Aug-16 19:04N 59°12' W 003°45'113.2
2018-Aug-16 19:00N 59°11' W 003°45'2613.6
2018-Aug-16 17:06N 58°45' W 003°35'213.2
2018-Aug-16 16:57N 58°43' W 003°34'7 0.3
2018-Aug-15 18:08N 58°37' W 003°32'1 4.4
2018-Aug-15 18:00N 58°37' W 003°31'2 3.6
2018-Aug-15 17:30N 58°38' W 003°31'8 5.5
2018-Aug-15 16:03N 58°41' W 003°46'0 7.1
2018-Aug-15 16:00N 58°41' W 003°47'2612.8
2018-Aug-15 14:00N 58°42' W 004°36'18812.4 230 / 271001.810.8 14.511.714.9
2018-Aug-14 22:49N 55°53' W 007°09'412.0
2018-Aug-14 22:29N 55°49' W 007°06'511.3
2018-Aug-14 22:00N 55°44' W 007°02'510.7
2018-Aug-14 21:30N 55°41' W 006°54'5 9.9
2018-Aug-14 21:00N 55°38' W 006°47'611.2
2018-Aug-14 20:30N 55°35' W 006°39'612.2
2018-Aug-14 20:01N 55°32' W 006°30'613.0
2018-Aug-14 19:31N 55°29' W 006°20'713.9
2018-Aug-14 19:00N 55°25' W 006°09'714.6
2018-Aug-14 18:30N 55°21' W 005°58'816.3
2018-Aug-14 18:00N 55°15' W 005°48'123121.4
2018-Aug-14 17:00N 57°18' W 005°24'114312.7 260 / 61011.7 5.4 15.814.916.3
2018-Aug-14 16:38N 55°24' W 005°29'4 8.8
2018-Aug-14 16:10N 55°25' W 005°35'0 0.0
2018-Aug-14 06:22N 55°26' W 005°36'1511.0
2018-Aug-14 05:00N 55°12' W 005°24'2 7.8 230 / 91011.110.8 14.713.116.1
2018-Aug-14 04:44N 55°13' W 005°27'410.0
2018-Aug-14 04:18N 55°09' W 005°26'311.4
2018-Aug-14 04:00N 55°05' W 005°26'611.4
2018-Aug-14 03:30N 54°60' W 005°24'612.7
2018-Aug-14 03:00N 54°54' W 005°22'612.5
2018-Aug-14 02:30N 54°48' W 005°19'612.1
2018-Aug-14 02:00N 54°42' W 005°15'2104.8
2018-Aug-14 02:00N 54°42' W 005°12'611.5 270 / 141011.810.8 14.212.915.4
2018-Aug-14 01:30N 54°36' W 005°13'510.9
2018-Aug-14 01:00N 54°31' W 005°11'510.0
2018-Aug-14 00:30N 54°26' W 005°10'5 9.3
2018-Aug-14 00:00N 54°21' W 005°11'5 9.9
2018-Aug-13 23:31N 54°17' W 005°13'510.0
2018-Aug-13 23:01N 54°12' W 005°15'5 9.9
2018-Aug-13 22:30N 54°07' W 005°14'5110.0
2018-Aug-13 17:23N 53°16' W 005°26'3 8.3
2018-Aug-13 16:59N 53°13' W 005°27'4 7.5
2018-Aug-13 16:29N 53°09' W 005°28'5 7.6
2018-Aug-13 15:49N 53°04' W 005°29'4 7.5
2018-Aug-13 15:20N 53°01' W 005°30'3 6.6
2018-Aug-13 14:54N 52°58' W 005°31'3 6.4
2018-Aug-13 14:30N 52°55' W 005°32'4 7.7
2018-Aug-13 14:00N 52°52' W 005°32'4 8.1
2018-Aug-13 13:30N 52°48' W 005°33'5 8.8
2018-Aug-13 12:59N 52°43' W 005°34'1310.0
2018-Aug-13 11:42N 52°30' W 005°37'411.0
2018-Aug-13 11:19N 52°26' W 005°38'511.5
2018-Aug-13 10:54N 52°21' W 005°39'1114.1
2018-Aug-13 10:08N 52°11' W 005°41'3715.0
2018-Aug-13 07:40N 51°34' W 005°43'213.8
2018-Aug-13 07:30N 51°32' W 005°40'813.3
2018-Aug-13 06:55N 51°26' W 005°33'712.8
2018-Aug-13 06:21N 51°21' W 005°24'411.7
2018-Aug-13 06:00N 51°22' W 005°18'1310.7
2018-Aug-13 04:50N 51°18' W 004°59'610.6
2018-Aug-13 04:16N 51°20' W 004°50'518.9
2018-Aug-13 04:00N 51°18' W 004°42'5110.9 260 / 141006.410.8 17.015.819.5
2018-Aug-12 23:21N 51°21' W 003°21'815.5
2018-Aug-12 22:48N 51°22' W 003°08'619.0
2018-Aug-12 22:30N 51°26' W 003°01'917.7
2018-Aug-12 22:00N 51°29' W 002°48'4 7.1
2018-Aug-12 21:30N 51°30' W 002°43'0 0.3
2018-Aug-12 20:58N 51°30' W 002°43'0 0.0
2018-Aug-12 20:28N 51°30' W 002°43'0 0.0
2018-Aug-12 19:58N 51°30' W 002°43'0 0.0
2018-Aug-12 19:28N 51°30' W 002°43'0 0.0
2018-Aug-12 18:58N 51°30' W 002°43'0 0.0
2018-Aug-12 18:30N 51°30' W 002°43'0 0.0
2018-Aug-12 18:00N 51°30' W 002°43'0 0.0
2018-Aug-12 17:30N 51°30' W 002°43'0 0.0
2018-Aug-12 17:00N 51°30' W 002°43'0 0.0
2018-Aug-12 16:30N 51°30' W 002°43'0 0.0
2018-Aug-12 15:59N 51°30' W 002°43'0 0.0
2018-Aug-12 15:29N 51°30' W 002°43'0 0.0
2018-Aug-12 14:59N 51°30' W 002°43'0 0.0
2018-Aug-12 14:29N 51°30' W 002°43'0 0.0
2018-Aug-12 13:58N 51°30' W 002°43'0 0.0
2018-Aug-12 13:28N 51°30' W 002°43'0 0.0
2018-Aug-12 12:58N 51°30' W 002°43'0 0.0
2018-Aug-12 12:28N 51°30' W 002°43'0 0.0
2018-Aug-12 11:58N 51°30' W 002°43'0 0.0
2018-Aug-12 11:30N 51°30' W 002°43'0 0.0
2018-Aug-12 11:00N 51°30' W 002°43'0 0.0
2018-Aug-12 10:30N 51°30' W 002°43'0 0.0
2018-Aug-12 10:00N 51°30' W 002°43'0 0.0
2018-Aug-12 09:29N 51°30' W 002°43'0 0.0
2018-Aug-12 08:59N 51°30' W 002°43'0 0.0
2018-Aug-12 08:29N 51°30' W 002°43'0 0.0
2018-Aug-12 07:59N 51°30' W 002°43'0 0.0
2018-Aug-12 07:29N 51°30' W 002°43'0 0.0
2018-Aug-12 06:58N 51°30' W 002°43'0 0.0
2018-Aug-12 06:28N 51°30' W 002°43'0 0.0
2018-Aug-12 05:58N 51°30' W 002°43'0 0.0
2018-Aug-12 05:28N 51°30' W 002°43'0 0.0
2018-Aug-12 05:00N 51°30' W 002°43'0 0.0
2018-Aug-12 04:30N 51°30' W 002°43'0 0.0
2018-Aug-12 04:00N 51°30' W 002°43'0 0.0
2018-Aug-12 03:30N 51°30' W 002°43'0 0.0
2018-Aug-12 03:00N 51°30' W 002°43'0 0.0
2018-Aug-12 02:29N 51°30' W 002°43'0 0.0
2018-Aug-12 01:59N 51°30' W 002°43'0 0.0
2018-Aug-12 01:29N 51°30' W 002°43'0 0.0
2018-Aug-12 00:59N 51°30' W 002°43'0 0.0
2018-Aug-12 00:29N 51°30' W 002°43'0 0.0
2018-Aug-11 23:58N 51°30' W 002°43'0 0.0
2018-Aug-11 23:28N 51°30' W 002°43'0 0.0
2018-Aug-11 22:58N 51°30' W 002°43'0 0.0
2018-Aug-11 22:28N 51°30' W 002°43'0 0.0
2018-Aug-11 21:57N 51°30' W 002°43'0 0.0
2018-Aug-11 21:30N 51°30' W 002°43'0 0.0
2018-Aug-11 21:00N 51°30' W 002°43'0 0.0
2018-Aug-11 20:30N 51°30' W 002°43'0 0.0
2018-Aug-11 20:00N 51°30' W 002°43'0 0.0
2018-Aug-11 19:29N 51°30' W 002°43'0 0.0
2018-Aug-11 18:59N 51°30' W 002°43'0 0.0
2018-Aug-11 18:29N 51°30' W 002°43'0 0.0
2018-Aug-11 17:59N 51°30' W 002°43'0 0.0
2018-Aug-11 17:29N 51°30' W 002°43'0 0.0
2018-Aug-11 16:58N 51°30' W 002°43'0 0.0
2018-Aug-11 16:28N 51°30' W 002°43'0 0.0
2018-Aug-11 15:58N 51°30' W 002°43'0 0.0
2018-Aug-11 15:28N 51°30' W 002°43'0 0.0
2018-Aug-11 15:00N 51°30' W 002°43'0 0.0
2018-Aug-11 14:30N 51°30' W 002°43'0 0.0
2018-Aug-11 14:00N 51°30' W 002°43'0 0.0
2018-Aug-11 13:30N 51°30' W 002°43'0 0.0
2018-Aug-11 13:00N 51°30' W 002°43'0 0.0
2018-Aug-11 12:29N 51°30' W 002°43'0 0.0
2018-Aug-11 11:59N 51°30' W 002°43'0 0.0
2018-Aug-11 11:29N 51°30' W 002°43'0 0.0
2018-Aug-11 10:59N 51°30' W 002°43'0 0.0
2018-Aug-11 10:29N 51°30' W 002°43'0 0.0
2018-Aug-11 09:58N 51°30' W 002°43'0 0.0
2018-Aug-11 09:28N 51°30' W 002°43'0 0.0
2018-Aug-11 08:58N 51°30' W 002°43'0 0.0
2018-Aug-11 08:28N 51°30' W 002°43'0 0.0
2018-Aug-11 08:00N 51°30' W 002°43'0 0.0
2018-Aug-11 07:27N 51°30' W 002°43'0 0.0
2018-Aug-11 07:00N 51°30' W 002°43'0 0.0
2018-Aug-11 06:30N 51°30' W 002°43'0 0.3
2018-Aug-11 05:58N 51°30' W 002°43'0 0.5
2018-Aug-11 05:31N 51°30' W 002°43'1 1.2
2018-Aug-11 05:01N 51°30' W 002°44'713.1
2018-Aug-11 04:31N 51°28' W 002°54'813.8
2018-Aug-11 03:57N 51°24' W 003°04'714.7
2018-Aug-11 03:30N 51°21' W 003°14'3511.8
2018-Aug-11 00:32N 51°19' W 004°10'11 8.6
2018-Aug-10 23:12N 51°18' W 004°28'2 8.2
2018-Aug-10 22:57N 51°18' W 004°31'5 7.9
2018-Aug-10 22:20N 51°18' W 004°39'2 7.7
2018-Aug-10 22:00N 51°18' W 004°43'3 6.9
2018-Aug-10 21:30N 51°16' W 004°48'4 7.3
2018-Aug-10 21:00N 51°13' W 004°51'4 7.4
2018-Aug-10 20:30N 51°10' W 004°55'4 7.9
2018-Aug-10 19:59N 51°07' W 004°59'4 8.2
2018-Aug-10 19:30N 51°04' W 005°02'4 8.4
2018-Aug-10 19:00N 50°60' W 005°02'4 8.9
2018-Aug-10 18:30N 50°55' W 005°01'5 9.0
2018-Aug-10 18:00N 50°52' W 005°06'4 9.1
2018-Aug-10 17:30N 50°49' W 005°11'5 9.1
2018-Aug-10 17:00N 50°45' W 005°16'5 9.6
2018-Aug-10 16:29N 50°41' W 005°21'611.9
2018-Aug-10 16:00N 50°36' W 005°24'224.1 310 / 121020.110.8 18.612.219.6
2018-Aug-10 15:53N 50°37' W 005°27'81 7.4
2018-Aug-10 05:00N 49°30' W 004°18'60 7.7 240 / 341018.010.8 16.413.620.4
2018-Aug-09 21:13N 49°16' W 002°49'9 0.6
2018-Aug-09 06:21N 49°17' W 002°34'515.5
2018-Aug-09 06:00N 49°20' W 002°42'111790.6
2018-Aug-09 06:00N 49°12' W 002°30'2227.4 050 / 141012.910.8 16.214.619.5
2018-Aug-09 05:12N 49°29' W 002°50'314.3
2018-Aug-09 05:00N 49°32' W 002°48'714.2
2018-Aug-09 04:30N 49°37' W 002°42'714.2
2018-Aug-09 04:00N 49°43' W 002°35'5716.1
2018-Aug-09 00:28N 50°04' W 001°13'1617.9
2018-Aug-08 23:34N 50°14' W 000°53'118.4
2018-Aug-08 23:30N 50°14' W 000°51'1117.9
2018-Aug-08 22:54N 50°19' W 000°36'917.6
2018-Aug-08 22:23N 50°23' W 000°23'1316.9
2018-Aug-08 21:38N 50°27' W 000°05'316.5
2018-Aug-08 21:29N 50°28' W 000°01'816.2
2018-Aug-08 21:00N 50°30' E 000°11'815.8
2018-Aug-08 20:30N 50°33' E 000°23'815.3
2018-Aug-08 19:59N 50°36' E 000°34'715.1
2018-Aug-08 19:30N 50°40' E 000°43'715.0
2018-Aug-08 19:00N 50°45' E 000°53'815.2
2018-Aug-08 18:31N 50°49' E 001°03'815.3
2018-Aug-08 18:01N 50°55' E 001°11'816.1
2018-Aug-08 17:30N 51°01' E 001°18'611.0
2018-Aug-08 17:00N 51°07' E 001°19'0 0.1
2018-Aug-08 15:25N 51°07' E 001°19'0 0.0
2018-Aug-08 14:55N 51°07' E 001°19'0 0.0
2018-Aug-08 14:28N 51°07' E 001°19'0 0.0
2018-Aug-08 13:30N 51°07' E 001°19'0 0.0
2018-Aug-08 11:42N 51°07' E 001°19'0 0.0
2018-Aug-08 11:20N 51°07' E 001°19'0 0.0
2018-Aug-08 10:53N 51°07' E 001°19'0 0.0
2018-Aug-08 10:29N 51°07' E 001°19'0 0.0
2018-Aug-08 04:02N 51°07' E 001°19'0 1.1
2018-Aug-08 03:55N 51°07' E 001°19'3 7.0
2018-Aug-08 03:30N 51°07' E 001°24'611.7
2018-Aug-08 03:00N 51°06' E 001°33'713.1
2018-Aug-08 02:30N 50°59' E 001°29'511.0
2018-Aug-08 02:01N 50°55' E 001°24'611.5
2018-Aug-08 01:30N 50°49' E 001°22'611.3
2018-Aug-08 01:01N 50°44' E 001°20'611.1
2018-Aug-08 00:29N 50°40' E 001°14'611.8
2018-Aug-08 00:01N 50°36' E 001°07'612.0
2018-Aug-07 23:31N 50°32' E 000°60'612.2
2018-Aug-07 23:00N 50°30' E 000°50'613.2
2018-Aug-07 22:31N 50°29' E 000°40'713.2
2018-Aug-07 21:58N 50°27' E 000°30'613.2
2018-Aug-07 21:29N 50°25' E 000°20'612.9
2018-Aug-07 21:01N 50°22' E 000°11'713.3
2018-Aug-07 20:30N 50°21' E 000°01'  
Track history (hours):
 
Tides and Currents Weather Stations Pressure Air Temp Water Temp Dewpoint Dewpoint Depression Visibility Wind Speed Wind Dir Waves Ship Positions

Saga Pearl II

Last reported at 2018-Aug-17 20:00 UTC. Time now 2018-Aug-18 00:46 UTC.
Position N 56°42' W 001°06'.

Length 165 m; draft 6.4 m.

Type: Ship. MMSI: 256878000.

Wind from 200 at 26 knots

Barometer 1007.1 mb
Air temperature 14.5 ° C
Visibility: greater than 10.8 NM
Dewpoint 13.1 ° C
Water temperature 14.3 ° C

Date/timePositionNaut miles runAvg speedWind from/ knotsBaromVisibWave heightAir tempDewpointWater temp
2018-Aug-17 20:00N 56°42' W 001°06'36 9.0 200 / 261007.110.8 14.513.114.3
2018-Aug-17 16:00N 57°18' W 001°12'18 9.1 230 / 301007.510.8 13.812.015.9
2018-Aug-17 14:00N 57°36' W 001°18'86 7.3 220 / 301007.7 5.4 14.012.214.7
2018-Aug-17 02:11N 58°55' W 002°20'2 9.0
2018-Aug-17 02:00N 58°54' W 002°18'4164.1 230 / 201003.810.8 12.611.515.1
2018-Aug-17 01:58N 58°57' W 002°20'46 6.7
2018-Aug-16 19:04N 59°12' W 003°45'113.2
2018-Aug-16 19:00N 59°11' W 003°45'2613.6
2018-Aug-16 17:06N 58°45' W 003°35'213.2
2018-Aug-16 16:57N 58°43' W 003°34'7 0.3
2018-Aug-15 18:08N 58°37' W 003°32'1 4.4
2018-Aug-15 18:00N 58°37' W 003°31'2 3.6
2018-Aug-15 17:30N 58°38' W 003°31'8 5.5
2018-Aug-15 16:03N 58°41' W 003°46'0 7.1
2018-Aug-15 16:00N 58°41' W 003°47'2612.8
2018-Aug-15 14:00N 58°42' W 004°36'18812.4 230 / 271001.810.8 14.511.714.9
2018-Aug-14 22:49N 55°53' W 007°09'412.0
2018-Aug-14 22:29N 55°49' W 007°06'511.3
2018-Aug-14 22:00N 55°44' W 007°02'510.7
2018-Aug-14 21:30N 55°41' W 006°54'5 9.9
2018-Aug-14 21:00N 55°38' W 006°47'611.2
2018-Aug-14 20:30N 55°35' W 006°39'612.2
2018-Aug-14 20:01N 55°32' W 006°30'613.0
2018-Aug-14 19:31N 55°29' W 006°20'713.9
2018-Aug-14 19:00N 55°25' W 006°09'714.6
2018-Aug-14 18:30N 55°21' W 005°58'816.3
2018-Aug-14 18:00N 55°15' W 005°48'123121.4
2018-Aug-14 17:00N 57°18' W 005°24'114312.7 260 / 61011.7 5.4 15.814.916.3
2018-Aug-14 16:38N 55°24' W 005°29'4 8.8
2018-Aug-14 16:10N 55°25' W 005°35'0 0.0
2018-Aug-14 06:22N 55°26' W 005°36'1511.0
2018-Aug-14 05:00N 55°12' W 005°24'2 7.8 230 / 91011.110.8 14.713.116.1
2018-Aug-14 04:44N 55°13' W 005°27'410.0
2018-Aug-14 04:18N 55°09' W 005°26'311.4
2018-Aug-14 04:00N 55°05' W 005°26'611.4
2018-Aug-14 03:30N 54°60' W 005°24'612.7
2018-Aug-14 03:00N 54°54' W 005°22'612.5
2018-Aug-14 02:30N 54°48' W 005°19'612.1
2018-Aug-14 02:00N 54°42' W 005°15'2104.8
2018-Aug-14 02:00N 54°42' W 005°12'611.5 270 / 141011.810.8 14.212.915.4
2018-Aug-14 01:30N 54°36' W 005°13'510.9
2018-Aug-14 01:00N 54°31' W 005°11'510.0
2018-Aug-14 00:30N 54°26' W 005°10'5 9.3
2018-Aug-14 00:00N 54°21' W 005°11'5 9.9
2018-Aug-13 23:31N 54°17' W 005°13'510.0
2018-Aug-13 23:01N 54°12' W 005°15'5 9.9
2018-Aug-13 22:30N 54°07' W 005°14'5110.0
2018-Aug-13 17:23N 53°16' W 005°26'3 8.3
2018-Aug-13 16:59N 53°13' W 005°27'4 7.5
2018-Aug-13 16:29N 53°09' W 005°28'5 7.6
2018-Aug-13 15:49N 53°04' W 005°29'4 7.5
2018-Aug-13 15:20N 53°01' W 005°30'3 6.6
2018-Aug-13 14:54N 52°58' W 005°31'3 6.4
2018-Aug-13 14:30N 52°55' W 005°32'4 7.7
2018-Aug-13 14:00N 52°52' W 005°32'4 8.1
2018-Aug-13 13:30N 52°48' W 005°33'5 8.8
2018-Aug-13 12:59N 52°43' W 005°34'1310.0
2018-Aug-13 11:42N 52°30' W 005°37'411.0
2018-Aug-13 11:19N 52°26' W 005°38'511.5
2018-Aug-13 10:54N 52°21' W 005°39'1114.1
2018-Aug-13 10:08N 52°11' W 005°41'3715.0
2018-Aug-13 07:40N 51°34' W 005°43'213.8
2018-Aug-13 07:30N 51°32' W 005°40'813.3
2018-Aug-13 06:55N 51°26' W 005°33'712.8
2018-Aug-13 06:21N 51°21' W 005°24'411.7
2018-Aug-13 06:00N 51°22' W 005°18'1310.7
2018-Aug-13 04:50N 51°18' W 004°59'610.6
2018-Aug-13 04:16N 51°20' W 004°50'518.9
2018-Aug-13 04:00N 51°18' W 004°42'5110.9 260 / 141006.410.8 17.015.819.5
2018-Aug-12 23:21N 51°21' W 003°21'815.5
2018-Aug-12 22:48N 51°22' W 003°08'619.0
2018-Aug-12 22:30N 51°26' W 003°01'917.7
2018-Aug-12 22:00N 51°29' W 002°48'4 7.1
2018-Aug-12 21:30N 51°30' W 002°43'0 0.3
2018-Aug-12 20:58N 51°30' W 002°43'0 0.0
2018-Aug-12 20:28N 51°30' W 002°43'0 0.0
2018-Aug-12 19:58N 51°30' W 002°43'0 0.0
2018-Aug-12 19:28N 51°30' W 002°43'0 0.0
2018-Aug-12 18:58N 51°30' W 002°43'0 0.0
2018-Aug-12 18:30N 51°30' W 002°43'0 0.0
2018-Aug-12 18:00N 51°30' W 002°43'0 0.0
2018-Aug-12 17:30N 51°30' W 002°43'0 0.0
2018-Aug-12 17:00N 51°30' W 002°43'0 0.0
2018-Aug-12 16:30N 51°30' W 002°43'0 0.0
2018-Aug-12 15:59N 51°30' W 002°43'0 0.0
2018-Aug-12 15:29N 51°30' W 002°43'0 0.0
2018-Aug-12 14:59N 51°30' W 002°43'0 0.0
2018-Aug-12 14:29N 51°30' W 002°43'0 0.0
2018-Aug-12 13:58N 51°30' W 002°43'0 0.0
2018-Aug-12 13:28N 51°30' W 002°43'0 0.0
2018-Aug-12 12:58N 51°30' W 002°43'0 0.0
2018-Aug-12 12:28N 51°30' W 002°43'0 0.0
2018-Aug-12 11:58N 51°30' W 002°43'0 0.0
2018-Aug-12 11:30N 51°30' W 002°43'0 0.0
2018-Aug-12 11:00N 51°30' W 002°43'0 0.0
2018-Aug-12 10:30N 51°30' W 002°43'0 0.0
2018-Aug-12 10:00N 51°30' W 002°43'0 0.0
2018-Aug-12 09:29N 51°30' W 002°43'0 0.0
2018-Aug-12 08:59N 51°30' W 002°43'0 0.0
2018-Aug-12 08:29N 51°30' W 002°43'0 0.0
2018-Aug-12 07:59N 51°30' W 002°43'0 0.0
2018-Aug-12 07:29N 51°30' W 002°43'0 0.0
2018-Aug-12 06:58N 51°30' W 002°43'0 0.0
2018-Aug-12 06:28N 51°30' W 002°43'0 0.0
2018-Aug-12 05:58N 51°30' W 002°43'0 0.0
2018-Aug-12 05:28N 51°30' W 002°43'0 0.0
2018-Aug-12 05:00N 51°30' W 002°43'0 0.0
2018-Aug-12 04:30N 51°30' W 002°43'0 0.0
2018-Aug-12 04:00N 51°30' W 002°43'0 0.0
2018-Aug-12 03:30N 51°30' W 002°43'0 0.0
2018-Aug-12 03:00N 51°30' W 002°43'0 0.0
2018-Aug-12 02:29N 51°30' W 002°43'0 0.0
2018-Aug-12 01:59N 51°30' W 002°43'0 0.0
2018-Aug-12 01:29N 51°30' W 002°43'0 0.0
2018-Aug-12 00:59N 51°30' W 002°43'0 0.0
2018-Aug-12 00:29N 51°30' W 002°43'0 0.0
2018-Aug-11 23:58N 51°30' W 002°43'0 0.0
2018-Aug-11 23:28N 51°30' W 002°43'0 0.0
2018-Aug-11 22:58N 51°30' W 002°43'0 0.0
2018-Aug-11 22:28N 51°30' W 002°43'0 0.0
2018-Aug-11 21:57N 51°30' W 002°43'0 0.0
2018-Aug-11 21:30N 51°30' W 002°43'0 0.0
2018-Aug-11 21:00N 51°30' W 002°43'0 0.0
2018-Aug-11 20:30N 51°30' W 002°43'0 0.0
2018-Aug-11 20:00N 51°30' W 002°43'0 0.0
2018-Aug-11 19:29N 51°30' W 002°43'0 0.0
2018-Aug-11 18:59N 51°30' W 002°43'0 0.0
2018-Aug-11 18:29N 51°30' W 002°43'0 0.0
2018-Aug-11 17:59N 51°30' W 002°43'0 0.0
2018-Aug-11 17:29N 51°30' W 002°43'0 0.0
2018-Aug-11 16:58N 51°30' W 002°43'0 0.0
2018-Aug-11 16:28N 51°30' W 002°43'0 0.0
2018-Aug-11 15:58N 51°30' W 002°43'0 0.0
2018-Aug-11 15:28N 51°30' W 002°43'0 0.0
2018-Aug-11 15:00N 51°30' W 002°43'0 0.0
2018-Aug-11 14:30N 51°30' W 002°43'0 0.0
2018-Aug-11 14:00N 51°30' W 002°43'0 0.0
2018-Aug-11 13:30N 51°30' W 002°43'0 0.0
2018-Aug-11 13:00N 51°30' W 002°43'0 0.0
2018-Aug-11 12:29N 51°30' W 002°43'0 0.0
2018-Aug-11 11:59N 51°30' W 002°43'0 0.0
2018-Aug-11 11:29N 51°30' W 002°43'0 0.0
2018-Aug-11 10:59N 51°30' W 002°43'0 0.0
2018-Aug-11 10:29N 51°30' W 002°43'0 0.0
2018-Aug-11 09:58N 51°30' W 002°43'0 0.0
2018-Aug-11 09:28N 51°30' W 002°43'0 0.0
2018-Aug-11 08:58N 51°30' W 002°43'0 0.0
2018-Aug-11 08:28N 51°30' W 002°43'0 0.0
2018-Aug-11 08:00N 51°30' W 002°43'0 0.0
2018-Aug-11 07:27N 51°30' W 002°43'0 0.0
2018-Aug-11 07:00N 51°30' W 002°43'0 0.0
2018-Aug-11 06:30N 51°30' W 002°43'0 0.3
2018-Aug-11 05:58N 51°30' W 002°43'0 0.5
2018-Aug-11 05:31N 51°30' W 002°43'1 1.2
2018-Aug-11 05:01N 51°30' W 002°44'713.1
2018-Aug-11 04:31N 51°28' W 002°54'813.8
2018-Aug-11 03:57N 51°24' W 003°04'714.7
2018-Aug-11 03:30N 51°21' W 003°14'3511.8
2018-Aug-11 00:32N 51°19' W 004°10'11 8.6
2018-Aug-10 23:12N 51°18' W 004°28'2 8.2
2018-Aug-10 22:57N 51°18' W 004°31'5 7.9
2018-Aug-10 22:20N 51°18' W 004°39'2 7.7
2018-Aug-10 22:00N 51°18' W 004°43'3 6.9
2018-Aug-10 21:30N 51°16' W 004°48'4 7.3
2018-Aug-10 21:00N 51°13' W 004°51'4 7.4
2018-Aug-10 20:30N 51°10' W 004°55'4 7.9
2018-Aug-10 19:59N 51°07' W 004°59'4 8.2
2018-Aug-10 19:30N 51°04' W 005°02'4 8.4
2018-Aug-10 19:00N 50°60' W 005°02'4 8.9
2018-Aug-10 18:30N 50°55' W 005°01'5 9.0
2018-Aug-10 18:00N 50°52' W 005°06'4 9.1
2018-Aug-10 17:30N 50°49' W 005°11'5 9.1
2018-Aug-10 17:00N 50°45' W 005°16'5 9.6
2018-Aug-10 16:29N 50°41' W 005°21'611.9
2018-Aug-10 16:00N 50°36' W 005°24'224.1 310 / 121020.110.8 18.612.219.6
2018-Aug-10 15:53N 50°37' W 005°27'81 7.4
2018-Aug-10 05:00N 49°30' W 004°18'60 7.7 240 / 341018.010.8 16.413.620.4
2018-Aug-09 21:13N 49°16' W 002°49'9 0.6
2018-Aug-09 06:21N 49°17' W 002°34'515.5
2018-Aug-09 06:00N 49°20' W 002°42'111790.6
2018-Aug-09 06:00N 49°12' W 002°30'2227.4 050 / 141012.910.8 16.214.619.5
2018-Aug-09 05:12N 49°29' W 002°50'314.3
2018-Aug-09 05:00N 49°32' W 002°48'714.2
2018-Aug-09 04:30N 49°37' W 002°42'714.2
2018-Aug-09 04:00N 49°43' W 002°35'5716.1
2018-Aug-09 00:28N 50°04' W 001°13'1617.9
2018-Aug-08 23:34N 50°14' W 000°53'118.4
2018-Aug-08 23:30N 50°14' W 000°51'1117.9
2018-Aug-08 22:54N 50°19' W 000°36'917.6
2018-Aug-08 22:23N 50°23' W 000°23'1316.9
2018-Aug-08 21:38N 50°27' W 000°05'316.5
2018-Aug-08 21:29N 50°28' W 000°01'816.2
2018-Aug-08 21:00N 50°30' E 000°11'815.8
2018-Aug-08 20:30N 50°33' E 000°23'815.3
2018-Aug-08 19:59N 50°36' E 000°34'715.1
2018-Aug-08 19:30N 50°40' E 000°43'715.0
2018-Aug-08 19:00N 50°45' E 000°53'815.2
2018-Aug-08 18:31N 50°49' E 001°03'815.3
2018-Aug-08 18:01N 50°55' E 001°11'816.1
2018-Aug-08 17:30N 51°01' E 001°18'611.0
2018-Aug-08 17:00N 51°07' E 001°19'0 0.1
2018-Aug-08 15:25N 51°07' E 001°19'0 0.0
2018-Aug-08 14:55N 51°07' E 001°19'0 0.0
2018-Aug-08 14:28N 51°07' E 001°19'0 0.0
2018-Aug-08 13:30N 51°07' E 001°19'0 0.0
2018-Aug-08 11:42N 51°07' E 001°19'0 0.0
2018-Aug-08 11:20N 51°07' E 001°19'0 0.0
2018-Aug-08 10:53N 51°07' E 001°19'0 0.0
2018-Aug-08 10:29N 51°07' E 001°19'0 0.0
2018-Aug-08 04:02N 51°07' E 001°19'0 1.1
2018-Aug-08 03:55N 51°07' E 001°19'3 7.0
2018-Aug-08 03:30N 51°07' E 001°24'611.7
2018-Aug-08 03:00N 51°06' E 001°33'713.1
2018-Aug-08 02:30N 50°59' E 001°29'511.0
2018-Aug-08 02:01N 50°55' E 001°24'611.5
2018-Aug-08 01:30N 50°49' E 001°22'611.3
2018-Aug-08 01:01N 50°44' E 001°20'611.1
2018-Aug-08 00:29N 50°40' E 001°14'611.8
2018-Aug-08 00:01N 50°36' E 001°07'612.0
2018-Aug-07 23:31N 50°32' E 000°60'612.2
2018-Aug-07 23:00N 50°30' E 000°50'613.2
2018-Aug-07 22:31N 50°29' E 000°40'713.2
2018-Aug-07 21:58N 50°27' E 000°30'613.2
2018-Aug-07 21:29N 50°25' E 000°20'612.9
2018-Aug-07 21:01N 50°22' E 000°11'713.3
2018-Aug-07 20:30N 50°21' E 000°01'  

Dump ship's entire track history